createdAt,value
2018-12-19T00:01:29.618Z,2.69
2018-12-19T00:03:00.355Z,2.69
2018-12-19T00:04:30.239Z,2.70
2018-12-19T00:06:00.347Z,2.70
2018-12-19T00:07:30.222Z,2.73
2018-12-19T00:09:03.351Z,2.72
2018-12-19T00:10:33.559Z,2.79
2018-12-19T00:12:03.662Z,2.76
2018-12-19T00:13:33.530Z,2.73
2018-12-19T00:15:24.698Z,2.73
2018-12-19T00:16:54.582Z,2.70
2018-12-19T00:23:19.614Z,2.51
2018-12-19T00:24:49.520Z,2.52
2018-12-19T00:26:19.404Z,2.49
2018-12-19T00:27:49.421Z,2.51
2018-12-19T00:29:19.335Z,2.54
2018-12-19T00:30:49.248Z,2.60
2018-12-19T00:32:19.131Z,2.64
2018-12-19T00:33:49.001Z,2.63
2018-12-19T00:35:18.996Z,2.66
2018-12-19T00:36:48.975Z,2.72
2018-12-19T00:38:18.966Z,2.78
2018-12-19T00:39:48.847Z,2.83
2018-12-19T00:41:18.714Z,2.85
2018-12-19T00:42:48.698Z,2.79
2018-12-19T00:44:18.594Z,2.78
2018-12-19T00:45:48.472Z,2.72
2018-12-19T00:47:18.358Z,2.66
2018-12-19T00:48:48.259Z,2.67
2018-12-19T00:50:18.144Z,2.69
2018-12-19T00:51:48.036Z,2.69
2018-12-19T00:53:17.889Z,2.71
2018-12-19T00:54:47.804Z,2.72
2018-12-19T00:56:17.687Z,2.72
2018-12-19T00:57:47.559Z,2.61
2018-12-19T00:59:17.423Z,2.59
2018-12-19T01:00:47.426Z,2.57
2018-12-19T01:02:17.295Z,2.60
2018-12-19T01:03:47.165Z,2.63
2018-12-19T01:05:17.128Z,2.61
2018-12-19T01:06:59.926Z,2.62
2018-12-19T01:08:29.915Z,2.60
2018-12-19T01:09:59.814Z,2.61
2018-12-19T01:11:29.719Z,2.64
2018-12-19T01:12:59.599Z,2.64
2018-12-19T01:14:29.487Z,2.67
2018-12-19T01:15:59.376Z,2.68
2018-12-19T01:17:29.251Z,2.63
2018-12-19T01:18:59.203Z,2.62
2018-12-19T01:20:29.102Z,2.59
2018-12-19T01:21:58.970Z,2.59
2018-12-19T01:23:28.871Z,2.61
2018-12-19T01:24:58.783Z,2.60
2018-12-19T01:26:28.697Z,2.58
2018-12-19T01:27:58.580Z,2.52
2018-12-19T01:29:28.464Z,2.52
2018-12-19T01:30:58.655Z,2.56
2018-12-19T01:32:28.528Z,2.58
2018-12-19T01:33:59.702Z,2.56
2018-12-19T01:35:29.599Z,2.51
2018-12-19T01:36:59.454Z,2.52
2018-12-19T01:38:29.321Z,2.52
2018-12-19T01:39:59.223Z,2.50
2018-12-19T01:41:29.083Z,2.52
2018-12-19T01:42:58.976Z,2.53
2018-12-19T01:44:28.844Z,2.48
2018-12-19T01:45:59.122Z,2.49
2018-12-19T01:47:29.127Z,2.47
2018-12-19T01:48:59.038Z,2.55
2018-12-19T01:50:28.924Z,2.57
2018-12-19T01:51:58.790Z,2.56
2018-12-19T01:53:28.651Z,2.55
2018-12-19T01:54:58.539Z,2.52
2018-12-19T01:56:29.198Z,2.51
2018-12-19T01:57:59.060Z,2.53
2018-12-19T01:59:28.933Z,2.58
2018-12-19T02:00:59.646Z,2.58
2018-12-19T02:02:30.591Z,2.58
2018-12-19T02:04:00.640Z,2.53
2018-12-19T02:05:30.661Z,2.51
2018-12-19T02:07:00.858Z,2.54
2018-12-19T02:08:30.732Z,2.57
2018-12-19T02:10:00.984Z,2.58
2018-12-19T02:11:30.855Z,2.61
2018-12-19T02:13:00.783Z,2.54
2018-12-19T02:14:32.025Z,2.56
2018-12-19T02:16:10.210Z,2.52
2018-12-19T02:17:40.068Z,2.49
2018-12-19T02:19:10.046Z,2.49
2018-12-19T02:20:39.919Z,2.50
2018-12-19T02:22:09.799Z,2.45
2018-12-19T02:23:40.458Z,2.40
2018-12-19T02:25:10.384Z,2.43
2018-12-19T02:26:40.253Z,2.44
2018-12-19T02:28:10.126Z,2.41
2018-12-19T02:29:39.999Z,2.44
2018-12-19T02:31:09.936Z,2.52
2018-12-19T02:32:39.812Z,2.54
2018-12-19T02:34:09.835Z,2.53
2018-12-19T02:35:39.864Z,2.53
2018-12-19T02:37:09.854Z,2.49
2018-12-19T02:38:39.720Z,2.48
2018-12-19T02:40:09.629Z,2.48
2018-12-19T02:41:39.527Z,2.51
2018-12-19T02:43:09.394Z,2.51
2018-12-19T02:44:47.021Z,2.49
2018-12-19T02:46:16.890Z,2.52
2018-12-19T02:47:46.755Z,2.56
2018-12-19T02:49:16.639Z,2.60
2018-12-19T02:50:46.511Z,2.61
2018-12-19T02:52:16.382Z,2.67
2018-12-19T02:53:46.275Z,2.65
2018-12-19T02:55:16.248Z,2.73
2018-12-19T02:56:46.115Z,2.73
2018-12-19T02:58:16.102Z,2.72
2018-12-19T02:59:45.989Z,2.78
2018-12-19T03:01:15.865Z,2.82
2018-12-19T03:02:45.735Z,2.81
2018-12-19T03:04:15.717Z,2.81
2018-12-19T03:05:45.613Z,2.82
2018-12-19T03:07:15.702Z,2.72
2018-12-19T03:08:59.287Z,2.76
2018-12-19T03:10:29.173Z,2.72
2018-12-19T03:11:59.166Z,2.70
2018-12-19T03:13:29.775Z,2.69
2018-12-19T03:14:59.660Z,2.71
2018-12-19T03:16:29.710Z,2.78
2018-12-19T03:17:59.581Z,2.78
2018-12-19T03:19:29.467Z,2.81
2018-12-19T03:20:59.337Z,2.74
2018-12-19T03:22:29.199Z,2.74
2018-12-19T03:23:59.067Z,2.72
2018-12-19T03:25:28.951Z,2.77
2018-12-19T03:26:58.831Z,2.73
2018-12-19T03:28:28.695Z,2.71
2018-12-19T03:29:58.587Z,2.74
2018-12-19T03:31:28.468Z,2.73
2018-12-19T03:32:58.355Z,2.64
2018-12-19T03:34:28.333Z,2.68
2018-12-19T03:35:58.319Z,2.74
2018-12-19T03:37:28.322Z,2.79
2018-12-19T03:38:58.193Z,2.80
2018-12-19T03:40:28.313Z,2.86
2018-12-19T03:41:58.397Z,2.91
2018-12-19T03:43:28.495Z,2.89
2018-12-19T03:44:58.360Z,2.91
2018-12-19T03:46:28.247Z,2.92
2018-12-19T03:47:58.114Z,2.87
2018-12-19T03:49:28.099Z,2.88
2018-12-19T03:50:58.089Z,2.89
2018-12-19T03:52:27.977Z,2.86
2018-12-19T03:53:57.834Z,2.74
2018-12-19T03:55:27.710Z,2.71
2018-12-19T03:56:57.598Z,2.70
2018-12-19T03:58:27.458Z,2.69
2018-12-19T04:00:10.283Z,2.76
2018-12-19T04:01:40.156Z,2.74
2018-12-19T04:03:10.017Z,2.78
2018-12-19T04:04:40.100Z,2.84
2018-12-19T04:06:09.968Z,2.86
2018-12-19T04:07:39.861Z,2.94
2018-12-19T04:09:09.739Z,2.91
2018-12-19T04:10:48.499Z,2.89
2018-12-19T04:12:18.407Z,2.79
2018-12-19T04:13:48.273Z,2.81
2018-12-19T04:15:18.147Z,2.80
2018-12-19T04:16:48.140Z,2.80
2018-12-19T04:18:18.031Z,2.74
2018-12-19T04:19:47.894Z,2.67
2018-12-19T04:21:17.811Z,2.69
2018-12-19T04:22:47.798Z,2.68
2018-12-19T04:24:17.670Z,2.60
2018-12-19T04:25:47.584Z,2.49
2018-12-19T04:27:17.544Z,2.49
2018-12-19T04:28:47.528Z,2.58
2018-12-19T04:30:17.408Z,2.62
2018-12-19T04:31:47.283Z,2.69
2018-12-19T04:33:17.264Z,2.76
2018-12-19T04:34:47.163Z,2.76
2018-12-19T04:36:17.182Z,2.77
2018-12-19T04:37:47.053Z,2.73
2018-12-19T04:39:16.930Z,2.76
2018-12-19T04:40:46.920Z,2.83
2018-12-19T04:42:16.786Z,2.86
2018-12-19T04:43:46.683Z,2.85
2018-12-19T04:45:16.693Z,2.90
2018-12-19T04:46:46.698Z,2.81
2018-12-19T04:48:16.555Z,2.73
2018-12-19T04:49:46.462Z,2.74
2018-12-19T04:51:16.435Z,2.76
2018-12-19T04:53:10.250Z,2.78
2018-12-19T04:54:40.131Z,2.78
2018-12-19T04:56:10.303Z,2.81
2018-12-19T04:57:40.172Z,2.82
2018-12-19T04:59:10.031Z,2.83
2018-12-19T05:00:39.914Z,2.86
2018-12-19T05:02:09.783Z,2.84
2018-12-19T05:03:52.772Z,2.85
2018-12-19T05:05:22.767Z,2.90
2018-12-19T05:06:52.661Z,2.94
2018-12-19T05:08:22.540Z,2.96
2018-12-19T05:10:26.844Z,2.96
2018-12-19T05:11:56.844Z,3.01
2018-12-19T05:13:41.252Z,3.06
2018-12-19T05:15:11.262Z,3.13
2018-12-19T05:16:41.139Z,3.22
2018-12-19T05:18:11.122Z,3.26
2018-12-19T05:19:41.360Z,3.34
2018-12-19T05:21:25.183Z,3.34
2018-12-19T05:23:03.195Z,3.29
2018-12-19T05:24:33.068Z,3.23
2018-12-19T05:26:03.186Z,3.05
2018-12-19T05:27:33.050Z,2.86
2018-12-19T05:29:03.044Z,2.97
2018-12-19T05:30:33.071Z,3.03
2018-12-19T05:32:03.187Z,3.05
2018-12-19T05:33:33.058Z,3.03
2018-12-19T05:35:03.531Z,3.05
2018-12-19T05:36:33.415Z,3.12
2018-12-19T05:38:03.294Z,3.10
2018-12-19T05:39:33.159Z,3.02
2018-12-19T05:41:03.033Z,3.02
2018-12-19T05:42:33.010Z,3.01
2018-12-19T05:44:03.015Z,3.03
2018-12-19T05:45:32.873Z,3.15
2018-12-19T05:47:02.867Z,3.11
2018-12-19T05:48:32.773Z,3.09
2018-12-19T05:50:03.439Z,3.07
2018-12-19T05:51:33.439Z,3.10
2018-12-19T05:53:03.317Z,3.20
2018-12-19T05:54:33.322Z,3.22
2018-12-19T05:56:03.323Z,3.25
2018-12-19T05:57:33.323Z,3.26
2018-12-19T05:59:03.323Z,3.30
2018-12-19T06:00:33.597Z,3.32
2018-12-19T06:02:03.817Z,3.30
2018-12-19T06:03:33.684Z,3.35
2018-12-19T06:05:04.638Z,3.28
2018-12-19T06:06:34.529Z,3.28
2018-12-19T06:08:04.514Z,3.36
2018-12-19T06:09:44.878Z,3.44
2018-12-19T06:11:14.746Z,3.43
2018-12-19T06:12:44.619Z,3.42
2018-12-19T06:14:14.493Z,3.43
2018-12-19T06:15:44.512Z,3.45
2018-12-19T06:17:14.395Z,3.46
2018-12-19T06:18:44.386Z,3.42
2018-12-19T06:20:14.267Z,3.49
2018-12-19T06:21:44.158Z,3.43
2018-12-19T06:23:14.030Z,3.35
2018-12-19T06:24:43.897Z,3.30
2018-12-19T06:26:13.777Z,3.27
2018-12-19T06:27:43.748Z,3.34
2018-12-19T06:29:24.017Z,3.35
2018-12-19T06:33:18.425Z,3.18
2018-12-19T06:34:48.288Z,3.13
2018-12-19T06:36:18.231Z,3.17
2018-12-19T06:37:48.118Z,3.15
2018-12-19T06:39:18.103Z,3.19
2018-12-19T06:40:47.990Z,3.15
2018-12-19T06:42:17.994Z,3.18
2018-12-19T06:43:47.860Z,3.18
2018-12-19T06:45:17.740Z,3.17
2018-12-19T06:46:47.625Z,3.22
2018-12-19T06:48:17.554Z,3.16
2018-12-19T06:49:47.421Z,3.19
2018-12-19T06:51:18.930Z,3.28
2018-12-19T06:52:49.050Z,3.29
2018-12-19T06:54:19.018Z,3.31
2018-12-19T06:55:48.988Z,3.38
2018-12-19T06:57:59.933Z,3.44
2018-12-19T06:59:45.159Z,3.56
2018-12-19T07:01:15.030Z,3.63
2018-12-19T07:02:45.018Z,3.74
2018-12-19T07:04:15.004Z,3.82
2018-12-19T07:05:44.993Z,3.86
2018-12-19T07:07:14.875Z,4.01
2018-12-19T07:08:44.741Z,4.20
2018-12-19T07:11:03.924Z,4.29
2018-12-19T07:12:33.799Z,4.64
2018-12-19T07:14:03.803Z,4.84
2018-12-19T07:15:33.803Z,5.02
2018-12-19T07:19:49.051Z,5.19
2018-12-19T07:21:18.922Z,5.09
2018-12-19T07:22:48.824Z,4.83
2018-12-19T07:24:18.885Z,4.75
2018-12-19T07:27:17.166Z,4.41
2018-12-19T07:28:47.155Z,4.28
2018-12-19T07:30:17.032Z,4.22
2018-12-19T07:31:46.923Z,4.24
2018-12-19T07:33:16.800Z,4.16
2018-12-19T07:34:46.816Z,4.11
2018-12-19T07:36:16.835Z,4.12
2018-12-19T07:37:46.823Z,4.24
2018-12-19T07:39:17.236Z,4.50
2018-12-19T07:40:47.197Z,4.68
2018-12-19T07:42:17.216Z,4.85
2018-12-19T07:43:47.191Z,4.96
2018-12-19T07:45:17.262Z,5.18
2018-12-19T07:46:47.265Z,5.25
2018-12-19T07:48:17.604Z,5.40
2018-12-19T07:49:47.564Z,5.59
2018-12-19T07:51:17.630Z,5.77
2018-12-19T07:52:47.959Z,5.97
2018-12-19T07:54:17.887Z,6.00
2018-12-19T07:55:48.084Z,6.06
2018-12-19T07:57:18.073Z,6.21
2018-12-19T07:58:48.019Z,6.32
2018-12-19T08:00:18.001Z,6.34
2018-12-19T08:01:47.987Z,6.47
2018-12-19T08:03:17.947Z,6.55
2018-12-19T08:04:48.110Z,6.61
2018-12-19T08:06:18.091Z,6.69
2018-12-19T08:07:48.037Z,6.68
2018-12-19T08:09:17.971Z,6.72
2018-12-19T08:10:52.145Z,6.79
2018-12-19T08:12:19.944Z,6.85
2018-12-19T08:13:49.932Z,6.95
2018-12-19T08:15:19.887Z,6.98
2018-12-19T08:16:49.976Z,6.84
2018-12-19T08:18:19.922Z,6.70
2018-12-19T08:19:49.896Z,6.61
2018-12-19T08:21:19.993Z,6.53
2018-12-19T08:22:49.964Z,6.47
2018-12-19T08:24:19.953Z,6.36
2018-12-19T08:25:49.883Z,6.15
2018-12-19T08:27:26.814Z,5.98
2018-12-19T08:28:56.902Z,5.87
2018-12-19T08:30:26.843Z,5.71
2018-12-19T08:31:56.923Z,5.60
2018-12-19T08:33:26.881Z,5.45
2018-12-19T08:35:15.739Z,5.32
2018-12-19T08:36:45.692Z,5.16
2018-12-19T08:38:15.621Z,5.11
2018-12-19T08:39:45.547Z,5.12
2018-12-19T08:41:15.532Z,5.15
2018-12-19T08:42:45.509Z,5.02
2018-12-19T08:44:15.510Z,4.90
2018-12-19T08:45:45.864Z,4.69
2018-12-19T08:47:15.828Z,4.59
2018-12-19T08:48:45.782Z,4.55
2018-12-19T08:50:15.811Z,4.55
2018-12-19T08:51:45.924Z,4.45
2018-12-19T08:53:15.860Z,4.33
2018-12-19T08:54:45.763Z,4.20
2018-12-19T08:56:15.688Z,4.15
2018-12-19T08:57:58.872Z,4.21
2018-12-19T08:59:28.877Z,4.24
2018-12-19T09:00:58.839Z,4.33
2018-12-19T09:02:28.914Z,4.41
2018-12-19T09:03:58.860Z,4.34
2018-12-19T09:05:28.952Z,4.33
2018-12-19T09:06:58.898Z,4.27
2018-12-19T09:08:28.919Z,4.30
2018-12-19T09:09:58.820Z,4.40
2018-12-19T09:11:28.795Z,4.41
2018-12-19T09:12:58.746Z,4.38
2018-12-19T09:14:28.677Z,4.19
2018-12-19T09:16:05.275Z,4.17
2018-12-19T09:17:35.866Z,4.12
2018-12-19T09:19:20.743Z,4.11
2018-12-19T09:20:50.825Z,4.09
2018-12-19T09:22:21.684Z,4.13
2018-12-19T09:23:51.688Z,4.25
2018-12-19T09:25:21.776Z,4.26
2018-12-19T09:26:51.721Z,4.36
2018-12-19T09:28:21.761Z,4.38
2018-12-19T09:29:51.672Z,4.39
2018-12-19T09:31:21.787Z,4.33
2018-12-19T09:32:52.670Z,4.40
2018-12-19T09:34:22.884Z,4.40
2018-12-19T09:35:52.855Z,4.39
2018-12-19T09:37:22.889Z,4.46
2018-12-19T09:38:53.008Z,4.64
2018-12-19T09:40:22.935Z,4.63
2018-12-19T09:41:52.980Z,4.60
2018-12-19T09:43:22.927Z,4.68
2018-12-19T09:44:52.883Z,4.68
2018-12-19T09:46:22.832Z,4.70
2018-12-19T09:47:52.812Z,4.66
2018-12-19T09:49:22.773Z,4.69
2018-12-19T09:51:00.914Z,4.72
2018-12-19T09:52:31.075Z,4.82
2018-12-19T09:54:01.133Z,4.96
2018-12-19T09:55:31.072Z,5.06
2018-12-19T09:57:01.024Z,5.13
2018-12-19T09:58:31.119Z,5.12
2018-12-19T10:00:01.035Z,5.09
2018-12-19T10:01:30.949Z,5.18
2018-12-19T10:03:01.001Z,5.24
2018-12-19T10:04:30.972Z,5.21
2018-12-19T10:06:00.847Z,5.35
2018-12-19T10:07:34.075Z,5.35
2018-12-19T10:09:07.668Z,5.40
2018-12-19T10:10:38.567Z,5.51
2018-12-19T10:12:08.483Z,5.58
2018-12-19T10:13:38.352Z,5.60
2018-12-19T10:15:08.239Z,5.69
2018-12-19T10:16:38.123Z,5.79
2018-12-19T10:18:08.032Z,5.83
2018-12-19T10:19:37.951Z,5.80
2018-12-19T10:21:07.971Z,5.80
2018-12-19T10:22:38.007Z,5.90
2018-12-19T10:24:07.896Z,5.98
2018-12-19T10:25:37.762Z,6.06
2018-12-19T10:27:07.670Z,6.13
2018-12-19T10:28:37.636Z,6.15
2018-12-19T10:30:09.751Z,6.09
2018-12-19T10:31:39.690Z,6.20
2018-12-19T10:33:09.842Z,6.30
2018-12-19T10:34:42.722Z,6.37
2018-12-19T10:36:12.744Z,6.41
2018-12-19T10:37:42.847Z,6.51
2018-12-19T10:39:16.167Z,6.62
2018-12-19T10:40:46.067Z,6.66
2018-12-19T10:42:16.059Z,6.64
2018-12-19T10:43:46.027Z,6.63
2018-12-19T10:45:16.050Z,6.67
2018-12-19T10:46:46.287Z,6.80
2018-12-19T10:48:16.242Z,6.65
2018-12-19T10:49:46.326Z,6.50
2018-12-19T10:51:16.371Z,6.32
2018-12-19T10:52:46.464Z,6.26
2018-12-19T10:54:16.878Z,6.31
2018-12-19T10:55:46.868Z,6.20
2018-12-19T10:57:16.845Z,6.21
2018-12-19T10:58:46.961Z,6.33
2018-12-19T11:00:23.020Z,6.34
2018-12-19T11:01:53.054Z,6.38
2018-12-19T11:03:23.151Z,6.37
2018-12-19T11:04:54.316Z,6.34
2018-12-19T11:06:24.621Z,6.13
2018-12-19T11:07:54.974Z,6.06
2018-12-19T11:09:25.086Z,5.92
2018-12-19T11:10:55.378Z,5.85
2018-12-19T11:12:25.572Z,5.57
2018-12-19T11:13:55.693Z,5.36
2018-12-19T11:15:25.765Z,5.32
2018-12-19T11:16:56.142Z,5.24
2018-12-19T11:18:26.741Z,5.30
2018-12-19T11:19:57.230Z,5.17
2018-12-19T11:21:27.355Z,5.10
2018-12-19T11:22:57.874Z,5.19
2018-12-19T11:24:28.121Z,5.21
2018-12-19T11:25:58.251Z,5.00
2018-12-19T11:27:28.505Z,4.98
2018-12-19T11:28:58.952Z,5.05
2018-12-19T11:30:29.168Z,5.17
2018-12-19T11:31:59.307Z,5.28
2018-12-19T11:33:29.763Z,5.24
2018-12-19T11:34:59.936Z,5.27
2018-12-19T11:36:30.026Z,5.29
2018-12-19T11:38:00.087Z,5.42
2018-12-19T11:39:30.090Z,5.46
2018-12-19T11:41:00.053Z,5.51
2018-12-19T11:42:30.086Z,5.50
2018-12-19T11:44:00.084Z,5.52
2018-12-19T11:45:30.031Z,5.53
2018-12-19T11:47:00.035Z,5.51
2018-12-19T11:48:30.040Z,5.34
2018-12-19T11:50:00.061Z,5.28
2018-12-19T11:51:30.100Z,5.26
2018-12-19T11:53:00.076Z,5.39
2018-12-19T11:54:30.008Z,5.35
2018-12-19T11:56:00.051Z,5.05
2018-12-19T11:57:30.203Z,5.09
2018-12-19T11:59:00.254Z,5.13
2018-12-19T12:00:30.435Z,5.08
2018-12-19T12:02:00.637Z,5.08
2018-12-19T12:03:30.910Z,5.22
2018-12-19T12:06:56.759Z,5.45
2018-12-19T12:08:26.848Z,5.28
2018-12-19T12:10:20.497Z,5.48
2018-12-19T12:11:50.581Z,5.58
2018-12-19T12:13:21.080Z,5.76
2018-12-19T12:14:51.185Z,5.85
2018-12-19T12:16:21.451Z,6.02
2018-12-19T12:17:51.556Z,6.19
2018-12-19T12:19:21.740Z,6.21
2018-12-19T12:20:51.867Z,6.21
2018-12-19T12:22:22.641Z,6.26
2018-12-19T12:23:53.154Z,6.34
2018-12-19T12:25:23.254Z,6.42
2018-12-19T12:26:53.941Z,6.53
2018-12-19T12:28:24.089Z,6.67
2018-12-19T12:29:54.644Z,6.66
2018-12-19T12:31:24.783Z,6.51
2018-12-19T12:32:55.479Z,6.50
2018-12-19T12:34:25.587Z,6.55
2018-12-19T12:35:55.943Z,6.59
2018-12-19T12:37:26.036Z,6.66
2018-12-19T12:38:56.300Z,6.76
2018-12-19T12:40:26.372Z,6.81
2018-12-19T12:41:56.600Z,6.74
2018-12-19T12:43:26.779Z,6.69
2018-12-19T12:44:57.106Z,6.51
2018-12-19T12:46:27.607Z,6.52
2018-12-19T12:47:57.726Z,6.60
2018-12-19T12:49:27.847Z,6.65
2018-12-19T12:50:58.190Z,6.67
2018-12-19T12:52:28.259Z,6.74
2018-12-19T12:53:58.307Z,6.82
2018-12-19T12:55:28.384Z,6.89
2018-12-19T12:56:58.657Z,6.91
2018-12-19T12:58:28.747Z,6.85
2018-12-19T12:59:58.982Z,6.90
2018-12-19T13:01:29.007Z,6.99
2018-12-19T13:02:59.100Z,7.05
2018-12-19T13:04:29.106Z,7.12
2018-12-19T13:05:59.314Z,7.17
2018-12-19T13:07:29.495Z,7.20
2018-12-19T13:08:59.821Z,7.24
2018-12-19T13:10:36.125Z,7.27
2018-12-19T13:12:02.115Z,7.28
2018-12-19T13:13:32.178Z,7.28
2018-12-19T13:15:02.486Z,7.30
2018-12-19T13:16:32.747Z,7.12
2018-12-19T13:18:03.071Z,7.05
2018-12-19T13:21:29.659Z,6.78
2018-12-19T13:24:55.231Z,6.69
2018-12-19T13:26:25.270Z,6.70
2018-12-19T13:27:55.542Z,6.69
2018-12-19T13:29:25.970Z,6.69
2018-12-19T13:30:56.246Z,6.69
2018-12-19T13:32:26.643Z,6.68
2018-12-19T13:33:56.759Z,6.66
2018-12-19T13:35:26.851Z,6.64
2018-12-19T13:36:57.006Z,6.63
2018-12-19T13:38:27.014Z,6.58
2018-12-19T13:39:57.052Z,6.56
2018-12-19T13:41:27.170Z,6.63
2018-12-19T13:42:57.144Z,6.71
2018-12-19T13:44:27.114Z,6.76
2018-12-19T13:45:57.200Z,6.80
2018-12-19T13:47:27.230Z,6.78
2018-12-19T13:48:57.293Z,6.81
2018-12-19T13:50:27.382Z,6.81
2018-12-19T13:51:58.073Z,6.87
2018-12-19T13:53:28.160Z,6.85
2018-12-19T13:54:58.332Z,6.93
2018-12-19T13:56:28.353Z,7.01
2018-12-19T13:57:58.356Z,7.11
2018-12-19T13:59:28.410Z,7.13
2018-12-19T14:00:58.478Z,7.02
2018-12-19T14:02:28.576Z,6.93
2018-12-19T14:03:58.572Z,6.85
2018-12-19T14:05:36.721Z,6.90
2018-12-19T14:07:07.506Z,7.02
2018-12-19T14:10:33.536Z,7.03
2018-12-19T14:12:03.997Z,7.00
2018-12-19T14:13:34.449Z,7.04
2018-12-19T14:15:05.558Z,7.06
2018-12-19T14:16:35.668Z,7.11
2018-12-19T14:18:05.991Z,7.13
2018-12-19T14:19:36.523Z,7.12
2018-12-19T14:21:06.766Z,7.06
2018-12-19T14:22:37.202Z,7.07
2018-12-19T14:24:07.303Z,7.06
2018-12-19T14:25:37.689Z,7.07
2018-12-19T14:27:07.927Z,7.07
2018-12-19T14:28:37.966Z,7.05
2018-12-19T14:30:08.880Z,7.04
2018-12-19T14:31:39.381Z,7.00
2018-12-19T14:33:09.499Z,6.99
2018-12-19T14:34:40.357Z,6.96
2018-12-19T14:36:10.348Z,6.89
2018-12-19T14:37:40.322Z,6.83
2018-12-19T14:39:10.595Z,6.82
2018-12-19T14:41:00.360Z,6.75
2018-12-19T14:42:30.720Z,6.60
2018-12-19T14:44:00.848Z,6.60
2018-12-19T14:45:31.019Z,6.55
2018-12-19T14:47:01.286Z,6.45
2018-12-19T14:48:31.455Z,6.40
2018-12-19T14:50:01.584Z,6.32
2018-12-19T14:51:32.314Z,6.28
2018-12-19T14:53:02.786Z,6.18
2018-12-19T14:54:32.946Z,6.04
2018-12-19T14:56:03.060Z,6.01
2018-12-19T14:57:33.097Z,5.99
2018-12-19T14:59:03.333Z,6.00
2018-12-19T15:00:33.775Z,6.00
2018-12-19T15:02:04.404Z,6.01
2018-12-19T15:03:34.369Z,5.96
2018-12-19T15:05:04.588Z,5.91
2018-12-19T15:06:34.623Z,5.84
2018-12-19T15:08:04.905Z,5.81
2018-12-19T15:09:35.008Z,5.85
2018-12-19T15:11:05.225Z,5.82
2018-12-19T15:12:35.347Z,5.85
2018-12-19T15:14:05.669Z,5.86
2018-12-19T15:15:35.917Z,5.86
2018-12-19T15:17:06.192Z,5.82
2018-12-19T15:18:36.216Z,5.77
2018-12-19T15:20:06.716Z,5.77
2018-12-19T15:21:37.469Z,5.75
2018-12-19T15:23:07.427Z,5.64
2018-12-19T15:24:37.460Z,5.65
2018-12-19T15:26:07.453Z,5.72
2018-12-19T15:27:37.452Z,5.68
2018-12-19T15:29:07.782Z,5.69
2018-12-19T15:30:37.797Z,5.78
2018-12-19T15:32:07.789Z,5.82
2018-12-19T15:33:37.745Z,5.74
2018-12-19T15:35:07.935Z,5.79
2018-12-19T15:36:38.179Z,5.80
2018-12-19T15:38:08.099Z,5.86
2018-12-19T15:39:38.084Z,5.96
2018-12-19T15:41:08.133Z,6.01
2018-12-19T15:42:38.109Z,6.08
2018-12-19T15:44:08.089Z,6.13
2018-12-19T15:45:38.143Z,6.18
2018-12-19T15:47:08.116Z,6.21
2018-12-19T15:48:38.057Z,6.22
2018-12-19T15:50:08.243Z,6.08
2018-12-19T15:51:38.260Z,6.05
2018-12-19T15:53:08.199Z,6.08
2018-12-19T15:54:38.291Z,6.12
2018-12-19T15:56:08.363Z,6.13
2018-12-19T15:57:38.405Z,6.10
2018-12-19T15:59:08.390Z,6.14
2018-12-19T16:00:38.361Z,6.16
2018-12-19T16:02:08.323Z,6.02
2018-12-19T16:03:38.292Z,5.98
2018-12-19T16:05:08.335Z,5.92
2018-12-19T16:06:38.276Z,5.90
2018-12-19T16:08:08.376Z,5.84
2018-12-19T16:09:38.477Z,5.69
2018-12-19T16:11:08.408Z,5.67
2018-12-19T16:12:41.879Z,5.65
2018-12-19T16:14:11.876Z,5.61
2018-12-19T16:15:41.838Z,5.62
2018-12-19T16:17:11.812Z,5.61
2018-12-19T16:18:41.852Z,5.62
2018-12-19T16:20:11.836Z,5.54
2018-12-19T16:21:41.798Z,5.55
2018-12-19T16:23:11.728Z,5.58
2018-12-19T16:24:41.735Z,5.43
2018-12-19T16:26:17.642Z,5.37
2018-12-19T16:27:47.561Z,5.37
2018-12-19T16:29:17.540Z,5.46
2018-12-19T16:30:47.520Z,5.52
2018-12-19T16:32:17.492Z,5.50
2018-12-19T16:33:47.556Z,5.43
2018-12-19T16:35:17.547Z,5.34
2018-12-19T16:36:47.486Z,5.20
2018-12-19T16:38:18.352Z,5.16
2018-12-19T16:39:48.570Z,5.20
2018-12-19T16:41:18.467Z,5.21
2018-12-19T16:42:48.363Z,5.24
2018-12-19T16:44:18.278Z,5.25
2018-12-19T16:45:48.283Z,5.24
2018-12-19T16:47:18.163Z,5.20
2018-12-19T16:48:48.482Z,5.18
2018-12-19T16:50:18.433Z,5.18
2018-12-19T16:51:48.432Z,5.17
2018-12-19T16:53:18.450Z,5.18
2018-12-19T16:54:48.379Z,5.19
2018-12-19T16:56:18.371Z,5.19
2018-12-19T16:57:48.675Z,5.17
2018-12-19T16:59:18.613Z,5.10
2018-12-19T17:00:48.505Z,5.02
2018-12-19T17:02:18.400Z,4.97
2018-12-19T17:03:48.295Z,4.98
2018-12-19T17:05:18.552Z,4.88
2018-12-19T17:06:48.568Z,4.83
2018-12-19T17:08:18.450Z,4.81
2018-12-19T17:09:48.357Z,4.76
2018-12-19T17:11:18.259Z,4.70
2018-12-19T17:12:52.766Z,4.65
2018-12-19T17:14:20.347Z,4.57
2018-12-19T17:15:50.388Z,4.41
2018-12-19T17:17:20.355Z,4.27
2018-12-19T17:18:50.420Z,4.24
2018-12-19T17:20:20.448Z,4.28
2018-12-19T17:21:50.442Z,4.28
2018-12-19T17:23:20.493Z,4.32
2018-12-19T17:24:50.493Z,4.35
2018-12-19T17:26:20.383Z,4.38
2018-12-19T17:27:50.412Z,4.43
2018-12-19T17:29:20.414Z,4.46
2018-12-19T17:30:50.329Z,4.50
2018-12-19T17:32:20.355Z,4.43
2018-12-19T17:33:50.328Z,4.41
2018-12-19T17:35:20.749Z,4.45
2018-12-19T17:36:50.944Z,4.47
2018-12-19T17:38:20.902Z,4.41
2018-12-19T17:39:50.898Z,4.31
2018-12-19T17:41:20.898Z,4.18
2018-12-19T17:42:51.285Z,4.14
2018-12-19T17:44:21.341Z,4.13
2018-12-19T17:45:51.436Z,4.16
2018-12-19T17:47:21.477Z,4.21
2018-12-19T17:48:51.571Z,4.21
2018-12-19T17:50:21.520Z,4.19
2018-12-19T17:51:51.808Z,4.21
2018-12-19T17:53:21.797Z,4.23
2018-12-19T17:54:51.775Z,4.24
2018-12-19T17:56:27.947Z,4.24
2018-12-19T17:57:57.869Z,4.27
2018-12-19T17:59:28.025Z,4.30
2018-12-19T18:00:57.975Z,4.29
2018-12-19T18:02:27.887Z,4.26
2018-12-19T18:03:57.891Z,4.21
2018-12-19T18:05:28.029Z,4.20
2018-12-19T18:06:57.960Z,4.17
2018-12-19T18:08:29.154Z,4.17
2018-12-19T18:09:59.575Z,4.11
2018-12-19T18:11:29.534Z,3.89
2018-12-19T18:13:05.976Z,3.65
2018-12-19T18:14:31.583Z,3.66
2018-12-19T18:16:01.640Z,3.68
2018-12-19T18:17:31.593Z,3.72
2018-12-19T18:19:01.624Z,3.71
2018-12-19T18:20:31.531Z,3.79
2018-12-19T18:22:01.643Z,3.89
2018-12-19T18:23:31.767Z,3.91
2018-12-19T18:25:01.786Z,3.87
2018-12-19T18:26:31.821Z,3.95
2018-12-19T18:28:01.739Z,4.03
2018-12-19T18:29:31.721Z,4.03
2018-12-19T18:31:02.176Z,4.00
2018-12-19T18:32:32.129Z,3.90
2018-12-19T18:34:02.093Z,3.86
2018-12-19T18:35:32.098Z,3.91
2018-12-19T18:37:02.292Z,3.97
2018-12-19T18:38:32.324Z,4.03
2018-12-19T18:40:02.495Z,4.09
2018-12-19T18:41:32.386Z,4.12
2018-12-19T18:43:02.468Z,4.16
2018-12-19T18:44:32.595Z,4.14
2018-12-19T18:46:03.573Z,4.09
2018-12-19T18:47:33.495Z,4.10
2018-12-19T18:49:04.046Z,4.12
2018-12-19T18:50:34.080Z,3.99
2018-12-19T18:52:03.992Z,3.85
2018-12-19T18:53:33.897Z,3.87
2018-12-19T18:55:04.592Z,3.88
2018-12-19T18:56:34.524Z,3.90
2018-12-19T18:58:10.439Z,3.92
2018-12-19T18:59:40.591Z,3.84
2018-12-19T19:01:10.524Z,3.73
2018-12-19T19:02:41.119Z,3.68
2018-12-19T19:04:11.111Z,3.78
2018-12-19T19:05:41.297Z,3.84
2018-12-19T19:07:11.801Z,3.90
2018-12-19T19:08:41.799Z,3.97
2018-12-19T19:10:14.157Z,3.93
2018-12-19T19:11:44.063Z,3.89
2018-12-19T19:13:19.626Z,3.89
2018-12-19T19:14:46.012Z,3.95
2018-12-19T19:16:16.059Z,3.99
2018-12-19T19:17:46.183Z,3.89
2018-12-19T19:19:16.096Z,3.87
2018-12-19T19:20:46.202Z,3.80
2018-12-19T19:22:16.116Z,3.74
2018-12-19T19:23:46.018Z,3.73
2018-12-19T19:25:16.119Z,3.67
2018-12-19T19:26:46.069Z,3.69
2018-12-19T19:28:15.968Z,3.68
2018-12-19T19:29:45.928Z,3.69
2018-12-19T19:31:15.810Z,3.72
2018-12-19T19:32:45.838Z,3.73
2018-12-19T19:34:16.748Z,3.79
2018-12-19T19:35:47.070Z,3.81
2018-12-19T19:37:17.091Z,3.86
2018-12-19T19:38:47.124Z,3.92
2018-12-19T19:40:17.065Z,3.96
2018-12-19T19:41:47.969Z,4.01
2018-12-19T19:43:17.875Z,4.06
2018-12-19T19:44:47.902Z,4.03
2018-12-19T19:46:18.023Z,4.04
2018-12-19T19:47:47.969Z,3.99
2018-12-19T19:49:17.874Z,4.00
2018-12-19T19:50:47.804Z,3.92
2018-12-19T19:52:17.799Z,3.81
2018-12-19T19:53:48.247Z,3.70
2018-12-19T19:55:18.379Z,3.70
2018-12-19T19:56:48.247Z,3.71
2018-12-19T19:58:18.169Z,3.73
2018-12-19T19:59:49.082Z,3.74
2018-12-19T20:01:19.297Z,3.78
2018-12-19T20:02:49.312Z,3.81
2018-12-19T20:04:19.343Z,3.86
2018-12-19T20:05:49.287Z,3.88
2018-12-19T20:07:19.441Z,3.87
2018-12-19T20:08:49.579Z,3.88
2018-12-19T20:10:19.755Z,3.79
2018-12-19T20:11:49.772Z,3.79
2018-12-19T20:13:33.055Z,3.84
2018-12-19T20:14:58.840Z,3.83
2018-12-19T20:16:28.863Z,3.85
2018-12-19T20:17:58.872Z,3.90
2018-12-19T20:19:30.167Z,3.92
2018-12-19T20:21:00.273Z,3.95
2018-12-19T20:22:30.480Z,3.88
2018-12-19T20:24:00.686Z,3.91
2018-12-19T20:25:30.815Z,3.90
2018-12-19T20:27:00.996Z,3.92